createdAt,value
2023-03-10T00:00:25.042Z,33.90
2023-03-10T00:02:57.547Z,34.00
2023-03-10T00:05:10.926Z,33.80
2023-03-10T00:07:24.530Z,33.70
2023-03-10T00:09:37.080Z,34.70
2023-03-10T00:11:49.737Z,33.20
2023-03-10T00:14:02.429Z,32.90
2023-03-10T00:16:19.655Z,33.00
2023-03-10T00:18:32.269Z,31.60
2023-03-10T00:20:44.947Z,31.60
2023-03-10T00:22:57.637Z,32.20
2023-03-10T00:25:10.963Z,32.50
2023-03-10T00:27:23.563Z,33.10
2023-03-10T00:29:36.135Z,31.40
2023-03-10T00:31:48.725Z,31.50
2023-03-10T00:34:01.333Z,31.90
2023-03-10T00:36:17.541Z,32.40
2023-03-10T00:38:30.207Z,31.80
2023-03-10T00:40:42.824Z,33.00
2023-03-10T00:42:55.416Z,31.90
2023-03-10T00:45:08.722Z,31.90
2023-03-10T00:47:21.326Z,32.70
2023-03-10T00:49:33.932Z,32.10
2023-03-10T00:51:46.560Z,31.80
2023-03-10T00:54:01.052Z,32.00
2023-03-10T00:56:22.275Z,34.00
2023-03-10T00:58:35.348Z,34.60
2023-03-10T01:00:47.915Z,33.10
2023-03-10T01:03:00.469Z,33.90
2023-03-10T01:05:14.658Z,33.40
2023-03-10T01:07:27.248Z,34.00
2023-03-10T01:09:39.846Z,33.90
2023-03-10T01:11:52.768Z,33.80
2023-03-10T01:14:08.201Z,35.30
2023-03-10T01:16:20.747Z,36.10
2023-03-10T01:18:33.497Z,34.60
2023-03-10T01:20:46.123Z,35.70
2023-03-10T01:22:59.145Z,36.90
2023-03-10T01:25:15.973Z,39.10
2023-03-10T01:27:28.613Z,39.50
2023-03-10T01:29:41.212Z,38.60
2023-03-10T01:31:53.844Z,42.60
2023-03-10T01:34:06.384Z,42.30
2023-03-10T01:36:21.919Z,40.90
2023-03-10T01:38:34.846Z,38.70
2023-03-10T01:40:49.914Z,41.30
2023-03-10T01:43:20.688Z,40.00
2023-03-10T01:45:33.201Z,37.40
2023-03-10T01:47:45.763Z,33.80
2023-03-10T01:49:58.728Z,32.50
2023-03-10T01:52:20.269Z,32.10
2023-03-10T01:54:58.852Z,32.30
2023-03-10T01:57:13.646Z,33.90
2023-03-10T01:59:27.484Z,32.00
2023-03-10T02:01:40.162Z,33.00
2023-03-10T02:04:07.962Z,33.30
2023-03-10T02:06:21.958Z,31.60
2023-03-10T02:08:41.812Z,32.00
2023-03-10T02:10:57.707Z,32.00
2023-03-10T02:13:10.437Z,28.90
2023-03-10T02:15:23.075Z,27.40
2023-03-10T02:17:36.119Z,28.20
2023-03-10T02:20:13.539Z,29.40
2023-03-10T02:22:26.781Z,30.00
2023-03-10T02:25:14.712Z,31.00
2023-03-10T02:27:31.195Z,30.40
2023-03-10T02:29:58.776Z,31.30
2023-03-10T02:32:15.080Z,30.60
2023-03-10T02:34:28.505Z,29.60
2023-03-10T02:36:41.212Z,28.80
2023-03-10T02:38:53.742Z,28.90
2023-03-10T02:41:19.271Z,28.20
2023-03-10T02:43:34.552Z,27.60
2023-03-10T02:45:48.943Z,26.90
2023-03-10T02:48:01.692Z,23.50
2023-03-10T02:50:16.758Z,23.10
2023-03-10T02:52:36.426Z,20.70
2023-03-10T02:54:49.018Z,20.20
2023-03-10T02:57:01.638Z,18.40
2023-03-10T02:59:14.960Z,16.40
2023-03-10T03:01:30.106Z,15.80
2023-03-10T03:03:43.957Z,16.60
2023-03-10T03:05:57.045Z,13.80
2023-03-10T03:08:10.130Z,13.10
2023-03-10T03:10:22.934Z,15.10
2023-03-10T03:12:35.501Z,14.60
2023-03-10T03:14:48.862Z,17.10
2023-03-10T03:17:01.611Z,13.40
2023-03-10T03:19:14.278Z,13.00
2023-03-10T03:21:27.376Z,8.50
2023-03-10T03:23:39.966Z,7.50
2023-03-10T03:25:52.564Z,8.20
2023-03-10T03:28:06.487Z,8.30
2023-03-10T03:30:22.414Z,8.20
2023-03-10T03:32:35.865Z,7.40
2023-03-10T03:34:48.523Z,10.40
2023-03-10T03:37:01.081Z,11.20
2023-03-10T03:39:17.233Z,8.10
2023-03-10T03:41:29.944Z,6.90
2023-03-10T03:43:42.504Z,8.10
2023-03-10T03:45:55.886Z,6.00
2023-03-10T03:48:09.333Z,6.30
2023-03-10T03:50:22.661Z,6.90
2023-03-10T03:52:35.544Z,8.30
2023-03-10T03:54:48.112Z,9.50
2023-03-10T03:57:00.649Z,7.30
2023-03-10T03:59:13.257Z,6.00
2023-03-10T04:01:25.922Z,6.90
2023-03-10T04:03:39.190Z,5.60
2023-03-10T04:05:51.849Z,6.40
2023-03-10T04:08:05.331Z,7.00
2023-03-10T04:10:20.921Z,5.80
2023-03-10T04:12:33.530Z,6.80
2023-03-10T04:14:46.066Z,6.60
2023-03-10T04:16:58.633Z,6.70
2023-03-10T04:19:11.441Z,7.60
2023-03-10T04:21:24.150Z,5.60
2023-03-10T04:23:36.801Z,6.80
2023-03-10T04:25:49.471Z,8.50
2023-03-10T04:28:02.044Z,8.20
2023-03-10T04:30:15.181Z,6.40
2023-03-10T04:32:27.910Z,6.50
2023-03-10T04:34:40.579Z,5.20
2023-03-10T04:36:53.273Z,5.20
2023-03-10T04:39:06.176Z,4.60
2023-03-10T04:41:18.869Z,6.10
2023-03-10T04:43:33.331Z,5.80
2023-03-10T04:45:48.878Z,4.50
2023-03-10T04:48:01.528Z,4.70
2023-03-10T04:50:17.446Z,5.10
2023-03-10T04:52:30.033Z,7.30
2023-03-10T04:54:42.639Z,5.40
2023-03-10T04:56:55.207Z,5.60
2023-03-10T04:59:07.718Z,6.00
2023-03-10T05:01:20.345Z,4.50
2023-03-10T05:03:32.897Z,6.50
2023-03-10T05:05:45.488Z,5.60
2023-03-10T05:07:58.038Z,6.00
2023-03-10T05:10:11.241Z,5.40
2023-03-10T05:12:24.047Z,4.80
2023-03-10T05:14:37.880Z,5.20
2023-03-10T05:16:50.500Z,6.00
2023-03-10T05:19:03.403Z,5.60
2023-03-10T05:21:16.512Z,6.00
2023-03-10T05:23:29.099Z,6.60
2023-03-10T05:25:41.704Z,5.70
2023-03-10T05:27:54.299Z,5.90
2023-03-10T05:30:08.924Z,6.80
2023-03-10T05:32:21.531Z,10.90
2023-03-10T05:34:34.119Z,6.90
2023-03-10T05:36:46.852Z,7.20
2023-03-10T05:38:59.422Z,6.50
2023-03-10T05:41:12.161Z,5.50
2023-03-10T05:43:24.829Z,5.10
2023-03-10T05:45:37.649Z,5.20
2023-03-10T05:47:50.208Z,5.30
2023-03-10T05:50:03.427Z,5.40
2023-03-10T05:52:16.438Z,6.60
2023-03-10T05:54:29.059Z,5.40
2023-03-10T05:56:41.666Z,4.40
2023-03-10T05:58:54.213Z,5.80
2023-03-10T06:01:08.034Z,5.10
2023-03-10T06:03:22.939Z,4.60
2023-03-10T06:05:35.777Z,4.60
2023-03-10T06:07:48.347Z,4.80
2023-03-10T06:10:02.069Z,4.20
2023-03-10T06:12:14.617Z,5.90
2023-03-10T06:14:27.291Z,4.40
2023-03-10T06:16:40.144Z,5.70
2023-03-10T06:18:56.566Z,5.50
2023-03-10T06:21:12.551Z,5.70
2023-03-10T06:23:26.235Z,6.10
2023-03-10T06:25:39.038Z,7.30
2023-03-10T06:27:51.611Z,5.40
2023-03-10T06:30:04.750Z,4.30
2023-03-10T06:32:17.368Z,3.90
2023-03-10T06:34:29.963Z,6.10
2023-03-10T06:36:43.344Z,8.10
2023-03-10T06:38:56.025Z,7.70
2023-03-10T06:41:09.313Z,6.20
2023-03-10T06:43:21.916Z,8.00
2023-03-10T06:45:34.496Z,7.90
2023-03-10T06:47:47.195Z,8.00
2023-03-10T06:50:00.970Z,6.80
2023-03-10T06:52:13.665Z,7.20
2023-03-10T06:54:26.523Z,6.40
2023-03-10T06:56:39.160Z,7.50
2023-03-10T06:58:51.708Z,5.50
2023-03-10T07:01:05.044Z,8.00
2023-03-10T07:03:18.500Z,6.90
2023-03-10T07:05:31.028Z,5.30
2023-03-10T07:07:43.657Z,6.30
2023-03-10T07:09:57.503Z,7.60
2023-03-10T07:12:10.136Z,8.50
2023-03-10T07:14:22.875Z,6.80
2023-03-10T07:16:35.676Z,5.10
2023-03-10T07:18:48.652Z,6.80
2023-03-10T07:21:01.421Z,5.00
2023-03-10T07:23:14.207Z,4.90
2023-03-10T07:25:27.473Z,5.00
2023-03-10T07:27:40.053Z,5.50
2023-03-10T07:29:52.612Z,6.00
2023-03-10T07:32:05.229Z,4.90
2023-03-10T07:34:17.803Z,5.80
2023-03-10T07:36:30.430Z,5.10
2023-03-10T07:38:43.150Z,7.10
2023-03-10T07:40:55.696Z,7.20
2023-03-10T07:43:08.252Z,4.60
2023-03-10T07:45:25.231Z,5.60
2023-03-10T07:47:37.761Z,5.30
2023-03-10T07:49:50.352Z,6.60
2023-03-10T07:52:03.391Z,6.20
2023-03-10T07:54:15.965Z,6.80
2023-03-10T07:56:28.725Z,6.50
2023-03-10T07:58:41.973Z,6.00
2023-03-10T08:00:58.939Z,7.80
2023-03-10T08:03:11.535Z,9.30
2023-03-10T08:05:24.065Z,19.80
2023-03-10T08:07:37.830Z,19.40
2023-03-10T08:09:51.355Z,13.80
2023-03-10T08:12:04.290Z,7.10
2023-03-10T08:14:20.934Z,8.40
2023-03-10T08:16:33.714Z,8.20
2023-03-10T08:18:46.253Z,9.40
2023-03-10T08:20:59.265Z,8.80
2023-03-10T08:23:11.775Z,10.00
2023-03-10T08:25:24.267Z,9.20
2023-03-10T08:27:36.842Z,10.30
2023-03-10T08:29:49.410Z,11.00
2023-03-10T08:32:02.043Z,14.50
2023-03-10T08:34:15.471Z,20.70
2023-03-10T08:36:30.383Z,13.00
2023-03-10T08:38:43.977Z,12.80
2023-03-10T08:40:56.863Z,34.90
2023-03-10T08:43:09.403Z,12.00
2023-03-10T08:45:21.971Z,16.90
2023-03-10T08:47:34.598Z,26.70
2023-03-10T08:49:49.009Z,12.00
2023-03-10T08:52:02.094Z,8.80
2023-03-10T08:54:18.629Z,9.30
2023-03-10T08:56:31.224Z,6.70
2023-03-10T08:58:44.377Z,4.20
2023-03-10T09:00:56.962Z,5.00
2023-03-10T09:03:15.358Z,4.70
2023-03-10T09:05:28.239Z,5.20
2023-03-10T09:07:40.963Z,6.20
2023-03-10T09:09:53.461Z,7.20
2023-03-10T09:12:08.972Z,6.80
2023-03-10T09:14:21.610Z,5.90
2023-03-10T09:16:34.278Z,6.90
2023-03-10T09:18:47.466Z,4.80
2023-03-10T09:21:00.122Z,6.00
2023-03-10T09:23:14.935Z,5.10
2023-03-10T09:25:27.600Z,4.80
2023-03-10T09:27:40.162Z,5.30
2023-03-10T09:29:52.932Z,4.50
2023-03-10T09:32:08.601Z,3.80
2023-03-10T09:34:21.359Z,5.90
2023-03-10T09:36:34.342Z,4.70
2023-03-10T09:38:47.200Z,7.00
2023-03-10T09:41:18.856Z,6.50
2023-03-10T09:43:38.907Z,5.20
2023-03-10T09:46:06.145Z,6.70
2023-03-10T09:48:36.320Z,4.00
2023-03-10T09:50:52.381Z,3.00
2023-03-10T09:53:17.481Z,3.10
2023-03-10T09:55:47.603Z,3.80
2023-03-10T09:58:03.683Z,3.40
2023-03-10T10:00:38.732Z,3.00
2023-03-10T10:02:59.790Z,2.80
2023-03-10T10:05:23.628Z,3.20
2023-03-10T10:07:52.865Z,3.60
2023-03-10T10:10:19.461Z,4.00
2023-03-10T10:12:32.018Z,3.40
2023-03-10T10:14:56.664Z,3.70
2023-03-10T10:18:18.036Z,4.50
2023-03-10T10:20:39.744Z,4.50
2023-03-10T10:22:52.355Z,3.60
2023-03-10T10:25:17.054Z,3.30
2023-03-10T10:27:32.668Z,3.30
2023-03-10T10:29:47.304Z,3.10
2023-03-10T10:32:12.345Z,5.40
2023-03-10T10:34:24.958Z,3.10
2023-03-10T10:36:48.639Z,4.00
2023-03-10T10:39:03.086Z,2.70
2023-03-10T10:41:34.136Z,4.50
2023-03-10T10:43:47.821Z,3.60
2023-03-10T10:46:09.033Z,3.40
2023-03-10T10:48:36.759Z,6.90
2023-03-10T10:50:53.890Z,6.30
2023-03-10T10:53:24.191Z,3.70
2023-03-10T10:55:36.932Z,2.50
2023-03-10T10:57:56.312Z,4.00
2023-03-10T11:00:25.240Z,5.60
2023-03-10T11:02:38.052Z,3.90
2023-03-10T11:04:50.939Z,6.70
2023-03-10T11:07:19.596Z,6.30
2023-03-10T11:09:32.255Z,6.90
2023-03-10T11:11:55.893Z,3.70
2023-03-10T11:14:32.316Z,9.00
2023-03-10T11:17:02.005Z,6.60
2023-03-10T11:19:49.845Z,10.10
2023-03-10T11:22:19.153Z,4.50
2023-03-10T11:24:40.590Z,2.80
2023-03-10T11:27:16.453Z,3.40
2023-03-10T11:29:50.639Z,4.50
2023-03-10T11:32:38.086Z,3.70
2023-03-10T11:34:55.675Z,4.20
2023-03-10T11:37:14.404Z,5.70
2023-03-10T11:39:45.578Z,3.80
2023-03-10T11:42:11.484Z,3.70
2023-03-10T11:44:46.736Z,3.70
2023-03-10T11:47:42.957Z,3.60
2023-03-10T11:50:28.937Z,4.10
2023-03-10T11:52:42.563Z,2.20
2023-03-10T11:55:05.640Z,4.30
2023-03-10T11:57:24.746Z,2.90
2023-03-10T11:59:46.591Z,3.90
2023-03-10T12:02:13.778Z,3.60
2023-03-10T12:04:51.092Z,5.30
2023-03-10T12:07:10.678Z,6.80
2023-03-10T12:09:49.069Z,5.70
2023-03-10T12:12:04.062Z,4.50
2023-03-10T12:14:16.781Z,4.00
2023-03-10T12:16:33.959Z,6.60
2023-03-10T12:18:47.201Z,8.00
2023-03-10T12:21:14.090Z,4.90
2023-03-10T12:23:26.933Z,5.10
2023-03-10T12:25:39.412Z,10.70
2023-03-10T12:28:16.712Z,4.80
2023-03-10T12:30:48.155Z,7.70
2023-03-10T12:33:00.659Z,7.00
2023-03-10T12:35:23.692Z,8.30
2023-03-10T12:37:36.199Z,11.20
2023-03-10T12:39:48.884Z,8.60
2023-03-10T12:42:03.596Z,5.50
2023-03-10T12:44:34.254Z,6.60
2023-03-10T12:46:59.439Z,6.40
2023-03-10T12:49:48.696Z,3.10
2023-03-10T12:52:19.088Z,2.30
2023-03-10T12:54:44.414Z,3.70
2023-03-10T12:57:09.610Z,5.20
2023-03-10T12:59:29.868Z,4.80
2023-03-10T13:01:55.165Z,8.20
2023-03-10T13:04:15.780Z,7.00
2023-03-10T13:06:38.732Z,5.50
2023-03-10T13:09:14.400Z,5.00
2023-03-10T13:11:52.326Z,5.30
2023-03-10T13:14:13.656Z,5.80
2023-03-10T13:16:26.323Z,4.50
2023-03-10T13:18:47.662Z,4.20
2023-03-10T13:21:03.092Z,4.20
2023-03-10T13:23:32.642Z,5.00
2023-03-10T13:25:56.028Z,4.20
2023-03-10T13:28:11.428Z,5.40
2023-03-10T13:30:27.125Z,5.50
2023-03-10T13:32:39.776Z,5.20
2023-03-10T13:34:52.906Z,3.00
2023-03-10T13:37:08.021Z,4.40
2023-03-10T13:39:25.642Z,2.30
2023-03-10T13:41:41.771Z,3.90
2023-03-10T13:43:55.032Z,2.90
2023-03-10T13:46:15.295Z,4.00
2023-03-10T13:48:29.193Z,3.00
2023-03-10T13:50:41.785Z,2.80
2023-03-10T13:52:57.809Z,3.20
2023-03-10T13:55:16.635Z,3.60
2023-03-10T13:57:33.474Z,3.50
2023-03-10T13:59:47.307Z,3.20
2023-03-10T14:02:01.270Z,3.70
2023-03-10T14:04:18.376Z,3.20
2023-03-10T14:06:31.650Z,2.70
2023-03-10T14:08:44.286Z,3.00
2023-03-10T14:11:39.074Z,4.00
2023-03-10T14:13:51.765Z,3.10
2023-03-10T14:16:04.619Z,3.60
2023-03-10T14:18:18.742Z,3.20
2023-03-10T14:20:32.755Z,2.70
2023-03-10T14:22:45.262Z,2.50
2023-03-10T14:24:59.860Z,6.60
2023-03-10T14:27:13.187Z,5.40
2023-03-10T14:29:26.511Z,4.00
2023-03-10T14:31:39.111Z,5.10
2023-03-10T14:33:51.730Z,5.50
2023-03-10T14:36:05.953Z,4.50
2023-03-10T14:38:18.602Z,3.90
2023-03-10T14:40:34.570Z,5.60
2023-03-10T14:42:48.940Z,3.80
2023-03-10T14:45:07.215Z,5.30
2023-03-10T14:47:20.026Z,3.90
2023-03-10T14:49:32.682Z,3.90
2023-03-10T14:51:45.284Z,3.00
2023-03-10T14:53:57.794Z,4.00
2023-03-10T14:56:15.150Z,3.40
2023-03-10T14:58:43.547Z,3.30
2023-03-10T15:00:56.165Z,4.50
2023-03-10T15:03:13.151Z,3.30
2023-03-10T15:05:44.981Z,3.90
2023-03-10T15:08:00.146Z,3.80
2023-03-10T15:10:13.331Z,3.50
2023-03-10T15:12:25.904Z,3.40
2023-03-10T15:14:38.486Z,3.10
2023-03-10T15:16:51.051Z,3.90
2023-03-10T15:19:03.624Z,2.80
2023-03-10T15:21:16.160Z,4.30
2023-03-10T15:23:30.079Z,4.50
2023-03-10T15:25:44.812Z,5.20
2023-03-10T15:27:58.337Z,4.00
2023-03-10T15:30:35.945Z,4.00
2023-03-10T15:32:49.008Z,5.00
2023-03-10T15:35:01.546Z,3.70
2023-03-10T15:37:14.235Z,4.90
2023-03-10T15:39:31.874Z,3.90
2023-03-10T15:41:45.199Z,4.90
2023-03-10T15:43:57.935Z,4.80
2023-03-10T15:46:11.778Z,4.50
2023-03-10T15:48:24.307Z,3.90
2023-03-10T15:50:37.013Z,6.30
2023-03-10T15:52:58.035Z,5.30
2023-03-10T15:55:10.825Z,4.70
2023-03-10T15:57:23.497Z,3.80
2023-03-10T15:59:36.487Z,4.90
2023-03-10T16:01:49.263Z,5.90
2023-03-10T16:04:05.650Z,5.70
2023-03-10T16:06:18.219Z,5.20
2023-03-10T16:08:37.081Z,5.30
2023-03-10T16:10:54.309Z,5.10
2023-03-10T16:13:07.456Z,6.20
2023-03-10T16:15:20.068Z,4.80
2023-03-10T16:17:32.655Z,5.60
2023-03-10T16:19:45.288Z,5.50
2023-03-10T16:21:57.804Z,5.30
2023-03-10T16:24:10.330Z,5.20
2023-03-10T16:26:24.186Z,4.50
2023-03-10T16:28:39.029Z,3.90
2023-03-10T16:30:51.751Z,4.90
2023-03-10T16:33:04.344Z,5.20
2023-03-10T16:35:17.689Z,6.60
2023-03-10T16:37:30.230Z,5.90
2023-03-10T16:39:43.391Z,5.90
2023-03-10T16:41:55.954Z,6.20
2023-03-10T16:44:12.314Z,5.90
2023-03-10T16:46:29.978Z,4.50
2023-03-10T16:48:45.125Z,5.80
2023-03-10T16:50:57.692Z,6.70
2023-03-10T16:53:10.244Z,8.00
2023-03-10T16:55:22.932Z,7.00
2023-03-10T16:57:36.058Z,6.10
2023-03-10T16:59:48.595Z,7.70
2023-03-10T17:02:01.252Z,7.10
2023-03-10T17:04:14.511Z,8.60
2023-03-10T17:06:30.976Z,9.90
2023-03-10T17:08:43.595Z,9.10
2023-03-10T17:10:56.335Z,8.80
2023-03-10T17:13:08.855Z,8.40
2023-03-10T17:15:21.476Z,7.30
2023-03-10T17:17:34.032Z,8.00
2023-03-10T17:19:50.408Z,7.70
2023-03-10T17:22:03.006Z,7.60
2023-03-10T17:24:17.593Z,10.50
2023-03-10T17:26:30.743Z,8.40
2023-03-10T17:28:44.909Z,9.40
2023-03-10T17:30:57.464Z,10.10
2023-03-10T17:33:10.006Z,8.70
2023-03-10T17:35:22.595Z,7.80
2023-03-10T17:37:35.131Z,9.20
2023-03-10T17:39:48.462Z,8.00
2023-03-10T17:42:01.460Z,7.90
2023-03-10T17:44:16.057Z,8.40
2023-03-10T17:46:30.181Z,7.70
2023-03-10T17:48:42.909Z,6.40
2023-03-10T17:50:56.931Z,6.60
2023-03-10T17:53:09.583Z,6.10
2023-03-10T17:55:22.736Z,6.50
2023-03-10T17:57:35.274Z,6.80
2023-03-10T17:59:47.822Z,5.60
2023-03-10T18:02:02.547Z,6.30
2023-03-10T18:04:15.097Z,6.70
2023-03-10T18:06:30.576Z,11.30
2023-03-10T18:08:43.257Z,11.50
2023-03-10T18:11:04.397Z,10.60
2023-03-10T18:13:18.013Z,9.90
2023-03-10T18:15:30.640Z,7.30
2023-03-10T18:17:43.217Z,6.00
2023-03-10T18:19:55.935Z,5.60
2023-03-10T18:22:09.134Z,5.50
2023-03-10T18:24:22.388Z,5.10
2023-03-10T18:26:35.520Z,4.90
2023-03-10T18:28:48.221Z,4.60
2023-03-10T18:31:00.750Z,4.60
2023-03-10T18:33:14.332Z,4.10
2023-03-10T18:35:26.970Z,6.10
2023-03-10T18:37:39.610Z,4.40
2023-03-10T18:39:52.223Z,4.50
2023-03-10T18:42:04.955Z,4.20
2023-03-10T18:44:17.676Z,4.20
2023-03-10T18:46:30.686Z,4.80
2023-03-10T18:48:43.486Z,5.70
2023-03-10T18:50:57.825Z,5.60
2023-03-10T18:53:10.440Z,6.50
2023-03-10T18:55:23.012Z,5.70
2023-03-10T18:57:35.620Z,5.90
2023-03-10T18:59:48.262Z,6.20
2023-03-10T19:02:01.258Z,5.80
2023-03-10T19:04:13.811Z,5.80
2023-03-10T19:06:33.935Z,6.70
2023-03-10T19:08:46.671Z,6.00
2023-03-10T19:10:59.947Z,8.50
2023-03-10T19:13:12.455Z,8.20
2023-03-10T19:15:25.201Z,13.50
2023-03-10T19:17:37.890Z,14.10
2023-03-10T19:19:50.423Z,8.30
2023-03-10T19:22:03.002Z,4.60
2023-03-10T19:24:15.635Z,4.60
2023-03-10T19:26:28.346Z,4.80
2023-03-10T19:28:40.992Z,3.60
2023-03-10T19:30:53.739Z,3.80
2023-03-10T19:33:06.237Z,3.30
2023-03-10T19:35:19.086Z,4.10
2023-03-10T19:37:31.781Z,4.30
2023-03-10T19:39:44.313Z,7.10
2023-03-10T19:41:56.873Z,9.20
2023-03-10T19:44:10.174Z,9.20
2023-03-10T19:46:22.844Z,8.40
2023-03-10T19:48:35.748Z,9.50
2023-03-10T19:50:53.847Z,8.10
2023-03-10T19:53:06.372Z,9.50
2023-03-10T19:55:22.925Z,6.70
2023-03-10T19:57:36.565Z,8.60
2023-03-10T19:59:49.542Z,6.10
2023-03-10T20:02:02.514Z,5.30
2023-03-10T20:04:15.671Z,6.00
2023-03-10T20:06:28.311Z,5.30
2023-03-10T20:08:40.891Z,4.30
2023-03-10T20:10:53.584Z,4.70
2023-03-10T20:13:06.139Z,5.10
2023-03-10T20:15:18.989Z,4.50
2023-03-10T20:17:31.610Z,4.70
2023-03-10T20:19:44.160Z,4.30
2023-03-10T20:21:57.040Z,4.00
2023-03-10T20:24:09.643Z,3.70
2023-03-10T20:26:22.219Z,3.80
2023-03-10T20:28:36.468Z,5.50
2023-03-10T20:30:51.115Z,3.50
2023-03-10T20:33:03.909Z,13.30
2023-03-10T20:35:17.733Z,14.80
2023-03-10T20:37:30.336Z,7.50
2023-03-10T20:39:43.244Z,4.90
2023-03-10T20:41:55.815Z,4.50
2023-03-10T20:44:13.967Z,3.70
2023-03-10T20:46:26.637Z,4.30
2023-03-10T20:48:39.527Z,3.40
2023-03-10T20:50:56.558Z,4.30
2023-03-10T20:53:10.060Z,5.90
2023-03-10T20:55:25.499Z,6.90
2023-03-10T20:57:38.237Z,10.50
2023-03-10T20:59:50.792Z,8.40
2023-03-10T21:02:03.584Z,6.30
2023-03-10T21:04:16.202Z,4.40
2023-03-10T21:06:28.800Z,4.00
2023-03-10T21:08:41.351Z,3.50
2023-03-10T21:10:53.978Z,3.80
2023-03-10T21:13:06.590Z,3.40
2023-03-10T21:15:19.700Z,3.50
2023-03-10T21:17:32.359Z,10.20
2023-03-10T21:19:44.970Z,2.80
2023-03-10T21:21:57.562Z,2.30
2023-03-10T21:24:10.286Z,3.70
2023-03-10T21:26:23.408Z,3.40
2023-03-10T21:28:36.085Z,3.30
2023-03-10T21:30:48.731Z,3.70
2023-03-10T21:33:01.510Z,4.50
2023-03-10T21:35:14.240Z,2.90
2023-03-10T21:37:26.781Z,4.60
2023-03-10T21:39:39.514Z,4.10
2023-03-10T21:41:52.196Z,5.20
2023-03-10T21:44:05.452Z,4.00
2023-03-10T21:46:18.149Z,2.50
2023-03-10T21:48:30.950Z,2.80
2023-03-10T21:50:43.537Z,2.60
2023-03-10T21:52:56.185Z,3.00
2023-03-10T21:55:16.199Z,2.50
2023-03-10T21:57:28.814Z,2.90
2023-03-10T21:59:41.425Z,4.20
2023-03-10T22:01:54.227Z,3.00
2023-03-10T22:04:07.034Z,2.20
2023-03-10T22:06:19.819Z,2.80
2023-03-10T22:08:33.840Z,2.70
2023-03-10T22:10:46.752Z,4.80
2023-03-10T22:12:59.415Z,8.00
2023-03-10T22:15:19.207Z,6.90
2023-03-10T22:17:32.151Z,4.70
2023-03-10T22:19:48.733Z,5.20
2023-03-10T22:22:02.414Z,4.10
2023-03-10T22:24:14.946Z,4.40
2023-03-10T22:26:27.547Z,4.20
2023-03-10T22:28:40.196Z,4.20
2023-03-10T22:30:53.065Z,4.00
2023-03-10T22:33:09.102Z,3.80
2023-03-10T22:35:22.221Z,3.80
2023-03-10T22:37:34.888Z,4.30
2023-03-10T22:39:47.485Z,3.40
2023-03-10T22:42:00.101Z,3.20
2023-03-10T22:44:12.727Z,3.80
2023-03-10T22:46:25.341Z,4.10
2023-03-10T22:48:38.267Z,3.40
2023-03-10T22:50:50.955Z,4.10
2023-03-10T22:53:08.055Z,3.30
2023-03-10T22:55:23.746Z,3.20
2023-03-10T22:57:36.316Z,2.80
2023-03-10T22:59:48.991Z,7.90
2023-03-10T23:02:01.620Z,5.20
2023-03-10T23:04:14.454Z,4.50
2023-03-10T23:06:29.069Z,3.70
2023-03-10T23:08:43.836Z,4.60
2023-03-10T23:10:56.427Z,4.60
2023-03-10T23:13:13.687Z,3.70
2023-03-10T23:15:29.286Z,3.20
2023-03-10T23:17:41.904Z,3.70
2023-03-10T23:19:56.130Z,3.80
2023-03-10T23:22:08.752Z,4.20
2023-03-10T23:24:21.533Z,3.90
2023-03-10T23:26:35.077Z,3.70
2023-03-10T23:28:47.696Z,3.60
2023-03-10T23:31:00.446Z,3.70
2023-03-10T23:33:15.385Z,5.70
2023-03-10T23:35:31.337Z,5.60
2023-03-10T23:37:44.050Z,6.80
2023-03-10T23:39:56.644Z,5.10
2023-03-10T23:42:09.565Z,7.40
2023-03-10T23:44:22.590Z,4.90
2023-03-10T23:46:35.236Z,4.90
2023-03-10T23:48:50.842Z,4.50
2023-03-10T23:51:03.681Z,4.80
2023-03-10T23:53:18.255Z,5.50
2023-03-10T23:55:33.987Z,5.30
2023-03-10T23:57:46.574Z,4.70
2023-03-10T23:59:59.173Z,5.10
